Time;durP1;ratioP1;P1;durP2;ratioP2;P2;SDS_P1;SDS_P2;PMS_P1;PMS_P2;Temp;Humidity;BMP_temperature;BMP_pressure;BME280_temperature;BME280_humidity;BME280_pressure;Samples;Min_cycle;Max_cycle;Signal;HPM_P1;HPM_P2
2022/07/07 00:01:39;;;;;;;6.95;1.58;;;;;;;;;;4955926;28;20670;-48
2022/07/07 00:04:05;;;;;;;9.57;2.00;;;;;;;;;;4955900;29;20195;-49
2022/07/07 00:06:31;;;;;;;5.93;1.48;;;;;;;;;;4955886;28;20233;-52
2022/07/07 00:08:58;;;;;;;11.23;1.77;;;;;;;;;;4939052;28;20194;-49
2022/07/07 00:11:25;;;;;;;7.68;1.70;;;;;;;;;;4938741;29;20190;-50
2022/07/07 00:13:51;;;;;;;12.00;2.03;;;;;;;;;;4956090;29;20239;-49
2022/07/07 00:16:18;;;;;;;9.93;2.13;;;;;;;;;;4954658;28;20189;-52
2022/07/07 00:18:44;;;;;;;8.00;1.90;;;;;;;;;;4955242;29;20761;-49
2022/07/07 00:21:11;;;;;;;10.23;2.00;;;;;;;;;;4938910;29;20175;-53
2022/07/07 00:23:37;;;;;;;9.40;2.08;;;;;;;;;;4955939;29;20198;-48
2022/07/07 00:26:03;;;;;;;8.95;2.30;;;;;;;;;;4938908;29;20194;-49
2022/07/07 00:28:30;;;;;;;10.15;1.80;;;;;;;;;;4937509;29;20290;-50
2022/07/07 00:30:56;;;;;;;2.92;1.65;;;;;;;;;;4955551;29;20209;-49
2022/07/07 00:33:23;;;;;;;9.75;2.00;;;;;;;;;;4956007;29;20682;-53
2022/07/07 00:35:49;;;;;;;3.45;1.63;;;;;;;;;;4954787;29;20191;-54
2022/07/07 00:38:15;;;;;;;2.65;1.77;;;;;;;;;;4954390;28;20693;-53
2022/07/07 00:40:41;;;;;;;5.93;2.22;;;;;;;;;;4938546;29;20217;-52
2022/07/07 00:43:08;;;;;;;5.97;1.80;;;;;;;;;;4955589;29;20175;-50
2022/07/07 00:45:34;;;;;;;3.85;2.05;;;;;;;;;;4937280;29;20281;-47
2022/07/07 00:48:00;;;;;;;7.85;1.90;;;;;;;;;;4955462;29;20183;-51
2022/07/07 00:50:27;;;;;;;4.38;1.95;;;;;;;;;;4955129;29;20194;-52
2022/07/07 00:52:53;;;;;;;5.82;2.05;;;;;;;;;;4954755;28;20598;-52
2022/07/07 00:55:19;;;;;;;7.32;1.98;;;;;;;;;;4955580;29;20262;-49
2022/07/07 00:57:46;;;;;;;7.15;2.13;;;;;;;;;;4955288;29;20214;-49
2022/07/07 01:00:13;;;;;;;4.97;1.73;;;;;;;;;;4938490;29;20200;-49
2022/07/07 01:02:39;;;;;;;6.90;1.95;;;;;;;;;;4937577;29;20580;-46
2022/07/07 01:05:08;;;;;;;5.22;2.08;;;;;;;;;;4955078;29;20190;-47
2022/07/07 01:07:34;;;;;;;5.75;2.15;;;;;;;;;;4938753;29;20198;-50
2022/07/07 01:10:01;;;;;;;7.72;2.20;;;;;;;;;;4955510;29;20190;-51
2022/07/07 01:12:32;;;;;;;6.78;2.30;;;;;;;;;;4954309;28;20190;-50
2022/07/07 01:14:59;;;;;;;6.63;2.28;;;;;;;;;;4954530;29;20194;-46
2022/07/07 01:17:25;;;;;;;11.23;2.28;;;;;;;;;;4955250;29;20211;-49
2022/07/07 01:19:52;;;;;;;7.60;2.38;;;;;;;;;;4955262;29;20182;-47
2022/07/07 01:22:21;;;;;;;5.18;2.05;;;;;;;;;;4954917;28;20179;-48
2022/07/07 01:24:47;;;;;;;5.93;2.30;;;;;;;;;;4953213;28;20195;-50
2022/07/07 01:27:15;;;;;;;6.40;2.35;;;;;;;;;;4954944;29;20202;-49
2022/07/07 01:29:42;;;;;;;5.47;2.50;;;;;;;;;;4937912;29;20186;-48
2022/07/07 01:32:09;;;;;;;9.00;2.63;;;;;;;;;;4954797;29;20191;-50
2022/07/07 01:34:39;;;;;;;5.57;2.28;;;;;;;;;;4937836;29;20186;-50
2022/07/07 01:37:06;;;;;;;6.75;2.70;;;;;;;;;;4954596;29;20214;-52
2022/07/07 01:39:32;;;;;;;4.55;2.50;;;;;;;;;;4954907;29;20189;-51
2022/07/07 01:41:58;;;;;;;12.80;3.05;;;;;;;;;;4954933;29;20229;-48
2022/07/07 01:44:24;;;;;;;12.23;2.70;;;;;;;;;;4936813;29;20229;-47
2022/07/07 01:46:51;;;;;;;8.98;3.00;;;;;;;;;;4936663;29;20647;-51
2022/07/07 01:49:17;;;;;;;6.30;3.20;;;;;;;;;;4954847;29;20709;-50
2022/07/07 01:51:43;;;;;;;10.02;3.15;;;;;;;;;;4954901;29;20658;-50
2022/07/07 01:54:10;;;;;;;8.40;3.20;;;;;;;;;;4954765;29;20519;-49
2022/07/07 01:56:36;;;;;;;9.77;3.22;;;;;;;;;;4953794;28;20194;-51
2022/07/07 01:59:03;;;;;;;18.15;2.80;;;;;;;;;;4954505;29;20222;-51
2022/07/07 02:01:29;;;;;;;10.63;2.92;;;;;;;;;;4954539;29;20187;-52
2022/07/07 02:03:55;;;;;;;13.82;3.58;;;;;;;;;;4954751;29;20187;-53
2022/07/07 02:06:21;;;;;;;12.27;3.03;;;;;;;;;;4933847;29;20211;-52
2022/07/07 02:08:47;;;;;;;11.70;3.30;;;;;;;;;;4954476;29;20190;-55
2022/07/07 02:11:13;;;;;;;18.85;3.63;;;;;;;;;;4954458;29;20187;-51
2022/07/07 02:13:44;;;;;;;9.70;2.58;;;;;;;;;;4954345;29;20230;-49
2022/07/07 02:16:11;;;;;;;10.98;2.40;;;;;;;;;;4953344;28;20197;-50
2022/07/07 02:18:37;;;;;;;10.43;1.90;;;;;;;;;;4937255;29;20298;-48
2022/07/07 02:21:04;;;;;;;10.20;1.92;;;;;;;;;;4954375;29;20190;-49
2022/07/07 02:23:31;;;;;;;11.32;1.77;;;;;;;;;;4954253;29;20214;-51
2022/07/07 02:25:57;;;;;;;8.07;1.90;;;;;;;;;;4953668;28;20197;-51
2022/07/07 02:28:23;;;;;;;11.82;1.90;;;;;;;;;;4954247;29;20187;-51
2022/07/07 02:30:50;;;;;;;9.65;2.10;;;;;;;;;;4937483;29;20241;-50
2022/07/07 02:33:17;;;;;;;9.13;1.77;;;;;;;;;;4939027;29;20178;-53
2022/07/07 02:35:43;;;;;;;13.73;2.47;;;;;;;;;;4924747;29;20186;-49
2022/07/07 02:38:09;;;;;;;12.82;2.10;;;;;;;;;;4939802;29;20573;-51
2022/07/07 02:40:35;;;;;;;11.77;2.13;;;;;;;;;;4941093;29;20333;-51
2022/07/07 02:43:01;;;;;;;7.95;1.95;;;;;;;;;;4940717;29;20182;-50
2022/07/07 02:45:27;;;;;;;12.23;2.28;;;;;;;;;;4956919;29;20189;-51
2022/07/07 02:47:54;;;;;;;10.48;1.90;;;;;;;;;;4957831;29;20602;-53
2022/07/07 02:50:20;;;;;;;13.18;2.00;;;;;;;;;;4957317;29;20197;-52
2022/07/07 02:52:46;;;;;;;13.50;2.30;;;;;;;;;;4956739;28;20230;-52
2022/07/07 02:55:12;;;;;;;13.20;2.25;;;;;;;;;;4940739;29;20635;-49
2022/07/07 02:57:38;;;;;;;9.32;1.98;;;;;;;;;;4957466;29;20218;-52
2022/07/07 03:00:05;;;;;;;14.15;2.10;;;;;;;;;;4957551;29;20190;-51
2022/07/07 03:02:32;;;;;;;13.13;2.15;;;;;;;;;;4957614;29;20175;-51
2022/07/07 03:04:58;;;;;;;13.43;2.50;;;;;;;;;;4940298;29;20542;-51
2022/07/07 03:07:24;;;;;;;15.98;2.40;;;;;;;;;;4955730;28;20668;-52
2022/07/07 03:09:50;;;;;;;14.65;2.38;;;;;;;;;;4957106;29;20196;-51
2022/07/07 03:12:16;;;;;;;10.38;2.22;;;;;;;;;;4940341;29;20187;-49
2022/07/07 03:14:42;;;;;;;16.52;2.20;;;;;;;;;;4956654;29;20714;-53
2022/07/07 03:17:08;;;;;;;12.30;2.10;;;;;;;;;;4956576;28;20705;-50
2022/07/07 03:19:35;;;;;;;12.80;1.90;;;;;;;;;;4939925;29;20229;-47
2022/07/07 03:22:04;;;;;;;10.82;2.15;;;;;;;;;;4957021;29;20187;-47
2022/07/07 03:24:31;;;;;;;6.30;1.48;;;;;;;;;;4940020;29;20672;-48
2022/07/07 03:26:59;;;;;;;9.23;1.77;;;;;;;;;;4956887;29;20217;-48
2022/07/07 03:29:28;;;;;;;10.60;1.58;;;;;;;;;;4957228;29;20171;-48
2022/07/07 03:31:54;;;;;;;6.60;1.42;;;;;;;;;;4939459;29;20265;-52
2022/07/07 03:34:20;;;;;;;6.95;1.13;;;;;;;;;;4939427;29;20210;-51
2022/07/07 03:36:47;;;;;;;9.95;1.63;;;;;;;;;;4956846;29;20190;-51
2022/07/07 03:39:13;;;;;;;15.85;1.67;;;;;;;;;;4957063;29;20198;-53
2022/07/07 03:41:39;;;;;;;9.10;1.63;;;;;;;;;;4939889;29;20196;-49
2022/07/07 03:44:05;;;;;;;8.30;1.48;;;;;;;;;;4937756;28;20643;-50
2022/07/07 03:46:31;;;;;;;12.88;1.48;;;;;;;;;;4955907;29;20647;-51
2022/07/07 03:48:57;;;;;;;11.57;1.90;;;;;;;;;;4956473;29;20171;-49
2022/07/07 03:51:23;;;;;;;12.00;1.85;;;;;;;;;;4939599;29;20182;-49
2022/07/07 03:53:49;;;;;;;12.35;1.50;;;;;;;;;;4939572;29;20218;-52
2022/07/07 03:56:15;;;;;;;13.60;2.05;;;;;;;;;;4956230;29;20194;-50
2022/07/07 03:58:42;;;;;;;9.88;1.33;;;;;;;;;;4937242;28;20218;-50
2022/07/07 04:01:08;;;;;;;10.55;1.70;;;;;;;;;;4956268;29;20187;-52
2022/07/07 04:03:34;;;;;;;22.48;2.40;;;;;;;;;;4955959;29;20245;-53
2022/07/07 04:06:00;;;;;;;8.75;1.90;;;;;;;;;;4956036;28;20600;-54
2022/07/07 04:08:26;;;;;;;16.05;2.10;;;;;;;;;;4956754;29;20270;-52
2022/07/07 04:10:52;;;;;;;14.70;1.77;;;;;;;;;;4956262;29;20198;-48
2022/07/07 04:13:19;;;;;;;9.15;1.67;;;;;;;;;;4955926;29;20241;-49
2022/07/07 04:15:45;;;;;;;13.55;2.10;;;;;;;;;;4954818;28;20178;-50
2022/07/07 04:18:11;;;;;;;12.02;2.05;;;;;;;;;;4955970;29;20207;-52
2022/07/07 04:20:37;;;;;;;11.40;1.80;;;;;;;;;;4956122;29;20191;-51
2022/07/07 04:23:03;;;;;;;16.80;2.45;;;;;;;;;;4955834;29;20194;-50
2022/07/07 04:25:29;;;;;;;20.10;2.17;;;;;;;;;;4938588;29;20635;-50
2022/07/07 04:27:56;;;;;;;23.08;3.00;;;;;;;;;;4938338;29;20202;-49
2022/07/07 04:30:22;;;;;;;13.80;2.25;;;;;;;;;;4939164;29;20220;-51
2022/07/07 04:32:48;;;;;;;13.68;2.28;;;;;;;;;;4955553;29;20205;-50
2022/07/07 04:35:14;;;;;;;18.10;2.30;;;;;;;;;;4955984;29;20178;-51
2022/07/07 04:37:41;;;;;;;14.90;2.45;;;;;;;;;;4954179;28;20233;-47
2022/07/07 04:40:07;;;;;;;13.70;2.50;;;;;;;;;;4938775;29;20190;-52
2022/07/07 04:42:34;;;;;;;14.52;2.25;;;;;;;;;;4955814;29;20170;-51
2022/07/07 04:45:00;;;;;;;7.35;1.70;;;;;;;;;;4954819;29;20603;-52
2022/07/07 04:47:26;;;;;;;11.10;1.90;;;;;;;;;;4953245;28;20194;-50
2022/07/07 04:49:53;;;;;;;11.68;1.83;;;;;;;;;;4938734;29;20533;-50
2022/07/07 04:52:19;;;;;;;13.50;2.63;;;;;;;;;;4954272;29;20186;-53
2022/07/07 04:54:45;;;;;;;10.88;1.70;;;;;;;;;;4955541;29;20189;-51
2022/07/07 04:57:12;;;;;;;14.68;2.28;;;;;;;;;;4954357;28;20210;-52
2022/07/07 04:59:40;;;;;;;9.10;1.30;;;;;;;;;;4955284;29;20186;-55
2022/07/07 05:02:06;;;;;;;7.85;1.30;;;;;;;;;;4937737;29;20197;-54
2022/07/07 05:04:33;;;;;;;6.10;0.98;;;;;;;;;;4955368;29;20195;-55
2022/07/07 05:06:59;;;;;;;5.22;1.00;;;;;;;;;;4955152;29;20178;-52
2022/07/07 05:09:25;;;;;;;8.65;1.42;;;;;;;;;;4937866;29;20282;-53
2022/07/07 05:11:51;;;;;;;6.95;1.50;;;;;;;;;;4955142;29;20179;-50
2022/07/07 05:14:17;;;;;;;9.73;1.50;;;;;;;;;;4953210;28;20223;-51
2022/07/07 05:16:43;;;;;;;12.13;1.55;;;;;;;;;;4937172;29;20178;-54
2022/07/07 05:19:10;;;;;;;6.07;1.70;;;;;;;;;;4938065;29;20268;-52
2022/07/07 05:21:36;;;;;;;13.38;1.95;;;;;;;;;;4940515;29;20193;-53
2022/07/07 05:24:03;;;;;;;12.20;1.70;;;;;;;;;;4955183;29;20245;-49
2022/07/07 05:26:29;;;;;;;13.60;1.98;;;;;;;;;;4955187;29;20179;-53
2022/07/07 05:28:55;;;;;;;14.18;1.67;;;;;;;;;;4954030;28;20651;-52
2022/07/07 05:31:21;;;;;;;8.07;1.70;;;;;;;;;;4955158;29;20651;-53
2022/07/07 05:33:47;;;;;;;6.93;1.83;;;;;;;;;;4937819;29;20195;-53
2022/07/07 05:36:13;;;;;;;14.70;1.85;;;;;;;;;;4937462;29;20182;-51
2022/07/07 05:38:40;;;;;;;9.52;1.70;;;;;;;;;;4954162;28;20207;-51
2022/07/07 05:41:06;;;;;;;9.38;1.98;;;;;;;;;;4937624;29;20198;-50
2022/07/07 05:43:32;;;;;;;10.90;1.98;;;;;;;;;;4954747;29;20178;-54
2022/07/07 05:45:59;;;;;;;11.73;2.03;;;;;;;;;;4936823;29;20608;-49
2022/07/07 05:48:26;;;;;;;10.38;1.95;;;;;;;;;;4921164;29;20186;-53
2022/07/07 05:50:53;;;;;;;11.50;1.50;;;;;;;;;;4937734;29;20249;-53
2022/07/07 05:53:19;;;;;;;15.23;1.92;;;;;;;;;;4953004;28;20269;-52
2022/07/07 05:55:45;;;;;;;11.45;2.10;;;;;;;;;;4954724;29;20186;-56
2022/07/07 05:58:12;;;;;;;13.65;1.92;;;;;;;;;;4954515;29;20237;-50
2022/07/07 06:00:38;;;;;;;15.45;3.22;;;;;;;;;;4954519;29;20199;-54
2022/07/07 06:03:04;;;;;;;17.55;2.25;;;;;;;;;;4954124;28;20189;-58
2022/07/07 06:05:30;;;;;;;8.95;2.35;;;;;;;;;;4921801;29;20658;-53
2022/07/07 06:07:57;;;;;;;15.13;2.63;;;;;;;;;;4922838;29;20186;-54
2022/07/07 06:10:23;;;;;;;7.55;2.03;;;;;;;;;;4958100;29;20198;-56
2022/07/07 06:12:49;;;;;;;9.98;2.25;;;;;;;;;;4957670;29;20222;-53
2022/07/07 06:15:17;;;;;;;10.30;1.98;;;;;;;;;;4939387;29;20559;-50
2022/07/07 06:17:44;;;;;;;9.95;2.00;;;;;;;;;;4958207;29;20240;-50
2022/07/07 06:20:10;;;;;;;16.42;2.25;;;;;;;;;;4958287;29;20237;-50
2022/07/07 06:22:36;;;;;;;13.00;2.10;;;;;;;;;;4958121;29;20213;-55
2022/07/07 06:25:02;;;;;;;10.25;2.10;;;;;;;;;;4957375;28;20185;-53
2022/07/07 06:27:30;;;;;;;13.95;2.25;;;;;;;;;;4925072;29;20551;-52
2022/07/07 06:29:57;;;;;;;14.60;2.88;;;;;;;;;;4957475;29;20187;-52
2022/07/07 06:32:23;;;;;;;13.63;2.13;;;;;;;;;;4958045;29;20185;-54
2022/07/07 06:34:49;;;;;;;8.50;1.60;;;;;;;;;;4957134;29;20183;-51
2022/07/07 06:37:15;;;;;;;6.43;1.45;;;;;;;;;;4956561;28;20574;-49
2022/07/07 06:39:41;;;;;;;9.13;1.60;;;;;;;;;;4957827;29;20234;-52
2022/07/07 06:42:07;;;;;;;7.03;1.50;;;;;;;;;;4925252;29;20285;-49
2022/07/07 06:44:40;;;;;;;10.82;1.52;;;;;;;;;;4941808;29;20197;-53
2022/07/07 06:47:06;;;;;;;9.32;1.67;;;;;;;;;;4939977;29;20194;-48
2022/07/07 06:49:32;;;;;;;12.30;1.65;;;;;;;;;;4957579;29;20185;-52
2022/07/07 06:51:59;;;;;;;16.42;2.20;;;;;;;;;;4957124;29;20650;-51
2022/07/07 06:54:25;;;;;;;14.95;2.10;;;;;;;;;;4957982;29;20181;-51
2022/07/07 06:56:51;;;;;;;10.32;1.80;;;;;;;;;;4957342;29;20241;-53
2022/07/07 06:59:17;;;;;;;7.18;1.95;;;;;;;;;;4924726;29;20190;-48
2022/07/07 07:01:44;;;;;;;14.18;1.83;;;;;;;;;;4930177;29;20481;-49
2022/07/07 07:04:13;;;;;;;11.98;1.75;;;;;;;;;;4941157;29;20190;-53
2022/07/07 07:06:40;;;;;;;15.05;2.60;;;;;;;;;;4940189;29;20272;-49
2022/07/07 07:09:07;;;;;;;10.43;2.35;;;;;;;;;;4957396;29;20237;-55
2022/07/07 07:11:33;;;;;;;12.40;1.95;;;;;;;;;;4957661;29;20258;-51
2022/07/07 07:14:02;;;;;;;12.15;2.08;;;;;;;;;;4957086;29;20230;-53
2022/07/07 07:16:28;;;;;;;8.95;2.05;;;;;;;;;;4939330;29;20639;-52
2022/07/07 07:18:54;;;;;;;9.02;1.60;;;;;;;;;;4939493;29;20765;-51
2022/07/07 07:21:20;;;;;;;16.42;2.08;;;;;;;;;;4939860;29;20274;-54
2022/07/07 07:23:47;;;;;;;10.55;1.98;;;;;;;;;;4939997;29;20178;-56
2022/07/07 07:26:13;;;;;;;9.98;1.60;;;;;;;;;;4957261;29;20241;-55
2022/07/07 07:28:39;;;;;;;7.20;1.20;;;;;;;;;;4939971;29;20186;-54
2022/07/07 07:31:05;;;;;;;9.95;1.13;;;;;;;;;;4955440;28;20210;-54
2022/07/07 07:33:31;;;;;;;11.07;1.45;;;;;;;;;;4956941;29;20185;-54
2022/07/07 07:35:58;;;;;;;11.73;1.45;;;;;;;;;;4956746;29;20278;-53
2022/07/07 07:38:24;;;;;;;14.02;1.23;;;;;;;;;;4956312;29;20268;-54
2022/07/07 07:40:51;;;;;;;10.80;1.30;;;;;;;;;;4956960;29;20178;-49
2022/07/07 07:43:17;;;;;;;7.38;1.48;;;;;;;;;;4956669;29;20646;-58
2022/07/07 07:45:43;;;;;;;8.63;1.42;;;;;;;;;;4955492;28;20661;-56
2022/07/07 07:48:09;;;;;;;8.23;1.35;;;;;;;;;;4956497;29;20658;-55
2022/07/07 07:50:35;;;;;;;5.07;1.23;;;;;;;;;;4956440;29;20191;-50
2022/07/07 07:53:05;;;;;;;6.97;1.10;;;;;;;;;;4955991;29;20186;-49
2022/07/07 07:55:31;;;;;;;7.32;1.50;;;;;;;;;;4935353;29;20195;-48
2022/07/07 07:57:58;;;;;;;12.82;1.70;;;;;;;;;;4956157;29;20218;-51
2022/07/07 08:00:24;;;;;;;13.48;1.60;;;;;;;;;;4954795;28;20215;-52
2022/07/07 08:02:51;;;;;;;11.50;1.33;;;;;;;;;;4956531;29;20254;-53
2022/07/07 08:05:18;;;;;;;10.93;1.60;;;;;;;;;;4956150;29;20226;-51
2022/07/07 08:07:44;;;;;;;7.15;1.15;;;;;;;;;;4956436;29;20199;-51
2022/07/07 08:10:12;;;;;;;11.50;1.70;;;;;;;;;;4954863;28;20190;-53
2022/07/07 08:12:38;;;;;;;13.45;1.98;;;;;;;;;;4939601;29;20202;-53
2022/07/07 08:15:05;;;;;;;9.93;1.30;;;;;;;;;;4955693;29;20376;-54
2022/07/07 08:17:32;;;;;;;6.80;1.00;;;;;;;;;;4955798;29;20269;-52
2022/07/07 08:19:59;;;;;;;10.00;1.60;;;;;;;;;;4938436;29;20190;-52
2022/07/07 08:22:25;;;;;;;10.43;1.90;;;;;;;;;;4955109;28;20245;-52
2022/07/07 08:24:51;;;;;;;13.18;2.00;;;;;;;;;;4956653;29;20209;-52
2022/07/07 08:27:17;;;;;;;14.90;2.58;;;;;;;;;;4955969;29;20179;-51
2022/07/07 08:29:44;;;;;;;14.00;2.30;;;;;;;;;;4939128;29;20190;-54
2022/07/07 08:32:10;;;;;;;21.35;2.08;;;;;;;;;;4937274;29;20237;-54
2022/07/07 08:34:37;;;;;;;10.35;1.52;;;;;;;;;;4955103;29;20214;-50
2022/07/07 08:37:03;;;;;;;11.82;1.48;;;;;;;;;;4955648;29;20308;-55
2022/07/07 08:39:30;;;;;;;9.40;1.90;;;;;;;;;;4938303;29;20206;-50
2022/07/07 08:41:56;;;;;;;16.52;2.35;;;;;;;;;;4955273;28;20202;-52
2022/07/07 08:44:22;;;;;;;13.55;1.90;;;;;;;;;;4938540;29;20219;-53
2022/07/07 08:46:48;;;;;;;11.43;1.83;;;;;;;;;;4954865;29;20261;-53
2022/07/07 08:49:14;;;;;;;15.90;2.42;;;;;;;;;;4938276;29;20194;-54
2022/07/07 08:51:41;;;;;;;14.57;1.65;;;;;;;;;;4955636;29;20197;-53
2022/07/07 08:54:09;;;;;;;14.45;2.00;;;;;;;;;;4938331;29;20217;-52
2022/07/07 08:56:38;;;;;;;9.43;1.48;;;;;;;;;;4936045;28;20214;-52
2022/07/07 08:59:05;;;;;;;11.82;1.50;;;;;;;;;;4955388;29;20317;-52
2022/07/07 09:01:31;;;;;;;13.23;1.45;;;;;;;;;;4955088;29;20182;-52
2022/07/07 09:03:57;;;;;;;14.32;1.90;;;;;;;;;;4938137;29;20198;-56
2022/07/07 09:06:23;;;;;;;9.30;1.73;;;;;;;;;;4953835;29;20238;-54
2022/07/07 09:08:49;;;;;;;13.23;2.38;;;;;;;;;;4954761;28;20187;-47
2022/07/07 09:11:16;;;;;;;11.30;1.42;;;;;;;;;;4955708;29;20271;-53
2022/07/07 09:13:42;;;;;;;8.18;1.50;;;;;;;;;;4953709;28;20293;-49
2022/07/07 09:16:18;;;;;;;10.18;1.92;;;;;;;;;;4937673;29;20182;-50
2022/07/07 09:18:45;;;;;;;13.27;1.92;;;;;;;;;;4955138;29;20217;-50
2022/07/07 09:21:31;;;;;;;10.45;1.20;;;;;;;;;;4954745;29;20281;-55
2022/07/07 09:24:01;;;;;;;10.98;1.83;;;;;;;;;;4953500;28;20182;-51
2022/07/07 09:26:38;;;;;;;12.75;1.50;;;;;;;;;;4937291;29;20253;-54
2022/07/07 09:29:08;;;;;;;9.82;2.05;;;;;;;;;;4955007;29;20197;-51
2022/07/07 09:31:54;;;;;;;9.85;1.70;;;;;;;;;;4954492;29;20202;-54
2022/07/07 09:34:22;;;;;;;7.75;1.48;;;;;;;;;;4930830;29;20225;-50
2022/07/07 09:39:40;;;;;;;16.80;2.25;;;;;;;;;;4954809;29;20185;-51
2022/07/07 09:42:20;;;;;;;12.40;1.75;;;;;;;;;;4954320;28;20259;-55
2022/07/07 09:44:50;;;;;;;13.85;2.20;;;;;;;;;;4937699;29;20191;-53
2022/07/07 09:47:16;;;;;;;14.35;2.15;;;;;;;;;;4954252;29;20233;-55
2022/07/07 09:49:43;;;;;;;14.40;2.38;;;;;;;;;;4920959;29;20198;-53
2022/07/07 09:52:16;;;;;;;16.55;2.70;;;;;;;;;;4936960;29;20179;-55
2022/07/07 09:54:47;;;;;;;11.88;2.60;;;;;;;;;;4954755;29;20194;-52
2022/07/07 09:57:13;;;;;;;11.77;2.38;;;;;;;;;;4954611;29;20678;-54
2022/07/07 09:59:41;;;;;;;11.10;1.88;;;;;;;;;;4937425;29;20278;-53
2022/07/07 10:02:13;;;;;;;15.80;2.00;;;;;;;;;;4954495;29;20185;-53
2022/07/07 10:04:40;;;;;;;10.38;2.30;;;;;;;;;;4953769;29;20244;-55
2022/07/07 10:07:10;;;;;;;11.82;2.05;;;;;;;;;;4937658;29;20190;-48
2022/07/07 10:09:37;;;;;;;16.38;2.17;;;;;;;;;;4954791;29;20269;-52
2022/07/07 10:12:04;;;;;;;14.27;2.03;;;;;;;;;;4954943;29;20194;-52
2022/07/07 10:14:35;;;;;;;9.88;1.73;;;;;;;;;;4933638;29;20230;-48
2022/07/07 10:17:01;;;;;;;8.55;1.50;;;;;;;;;;4933799;29;20195;-50
2022/07/07 10:19:28;;;;;;;11.45;2.08;;;;;;;;;;4935283;29;20195;-46
2022/07/07 10:21:55;;;;;;;8.10;1.55;;;;;;;;;;4935331;29;20331;-49
2022/07/07 10:24:23;;;;;;;9.40;1.85;;;;;;;;;;4916717;29;20180;-50
2022/07/07 10:26:49;;;;;;;13.45;2.15;;;;;;;;;;4930703;29;20298;-53
2022/07/07 10:29:15;;;;;;;14.77;2.42;;;;;;;;;;4935253;29;20182;-53
2022/07/07 10:31:42;;;;;;;10.38;2.25;;;;;;;;;;4934221;29;20176;-53
2022/07/07 10:34:09;;;;;;;15.98;1.83;;;;;;;;;;4934492;29;20235;-49
2022/07/07 10:36:50;;;;;;;14.85;2.40;;;;;;;;;;4934425;29;20192;-50
2022/07/07 10:39:23;;;;;;;11.70;2.55;;;;;;;;;;4935685;29;20195;-52
2022/07/07 10:42:15;;;;;;;13.70;3.03;;;;;;;;;;4935092;29;20666;-52
2022/07/07 10:44:42;;;;;;;13.43;2.90;;;;;;;;;;4933348;29;20215;-54
2022/07/07 10:47:12;;;;;;;14.82;2.78;;;;;;;;;;4929531;29;20303;-53
2022/07/07 10:49:42;;;;;;;19.42;3.08;;;;;;;;;;4915898;29;20188;-54
2022/07/07 10:52:12;;;;;;;22.00;3.08;;;;;;;;;;4918372;29;20609;-51
2022/07/07 10:54:40;;;;;;;19.73;3.10;;;;;;;;;;4935621;29;20191;-54
2022/07/07 10:57:06;;;;;;;18.35;3.30;;;;;;;;;;4936453;29;20226;-51
2022/07/07 10:59:52;;;;;;;20.25;2.75;;;;;;;;;;4937211;29;20226;-54
2022/07/07 11:02:38;;;;;;;15.27;3.28;;;;;;;;;;4938640;29;20191;-54
2022/07/07 11:05:10;;;;;;;22.45;2.88;;;;;;;;;;4936950;29;20191;-53
2022/07/07 11:07:37;;;;;;;19.15;3.00;;;;;;;;;;4938250;29;20218;-51
2022/07/07 11:10:05;;;;;;;11.68;2.13;;;;;;;;;;4937737;29;20660;-55
2022/07/07 11:12:36;;;;;;;16.08;2.50;;;;;;;;;;4936499;29;20660;-51
2022/07/07 11:15:20;;;;;;;8.95;1.55;;;;;;;;;;4936199;29;20255;-54
2022/07/07 11:18:06;;;;;;;13.55;2.08;;;;;;;;;;4936594;29;20218;-54
2022/07/07 11:20:33;;;;;;;15.68;1.92;;;;;;;;;;4918949;29;20220;-50
2022/07/07 11:23:06;;;;;;;11.10;1.85;;;;;;;;;;4919007;29;20176;-50
2022/07/07 11:25:34;;;;;;;10.65;1.45;;;;;;;;;;4934788;29;20191;-52
2022/07/07 11:28:00;;;;;;;8.95;1.67;;;;;;;;;;4936910;29;20183;-52
2022/07/07 11:30:28;;;;;;;8.77;1.80;;;;;;;;;;4937817;29;20663;-49
2022/07/07 11:32:59;;;;;;;16.45;2.33;;;;;;;;;;4936870;29;20278;-53
2022/07/07 11:35:31;;;;;;;13.02;2.20;;;;;;;;;;4935847;29;20199;-54
2022/07/07 11:37:58;;;;;;;21.77;2.80;;;;;;;;;;4937868;29;20206;-50
2022/07/07 11:40:24;;;;;;;15.68;2.55;;;;;;;;;;4937392;29;20199;-53
2022/07/07 11:42:51;;;;;;;19.17;3.50;;;;;;;;;;4937783;29;20223;-53
2022/07/07 11:45:19;;;;;;;15.65;3.03;;;;;;;;;;4919495;29;20771;-53
2022/07/07 11:47:47;;;;;;;26.15;3.30;;;;;;;;;;4936259;29;20198;-52
2022/07/07 11:50:14;;;;;;;35.10;3.05;;;;;;;;;;4937625;29;20270;-55
2022/07/07 11:52:47;;;;;;;19.42;2.90;;;;;;;;;;4937212;29;20199;-52
2022/07/07 11:55:15;;;;;;;17.00;2.50;;;;;;;;;;4936148;29;20175;-53
2022/07/07 11:57:41;;;;;;;16.15;3.10;;;;;;;;;;4935576;29;20234;-53
2022/07/07 12:00:08;;;;;;;19.60;2.53;;;;;;;;;;4917002;29;20267;-49
2022/07/07 12:02:37;;;;;;;20.40;2.92;;;;;;;;;;4917061;29;20243;-54
2022/07/07 12:05:04;;;;;;;12.38;2.40;;;;;;;;;;4916693;29;20259;-52
2022/07/07 12:07:30;;;;;;;10.77;2.00;;;;;;;;;;4932122;29;20196;-52
2022/07/07 12:09:56;;;;;;;9.88;2.35;;;;;;;;;;4936288;29;20187;-53
2022/07/07 12:12:22;;;;;;;13.02;2.28;;;;;;;;;;4937047;29;20270;-50
2022/07/07 12:14:49;;;;;;;16.25;2.17;;;;;;;;;;4935952;29;20282;-53
2022/07/07 12:17:33;;;;;;;10.43;2.22;;;;;;;;;;4936405;29;20203;-51
2022/07/07 12:20:00;;;;;;;11.27;2.10;;;;;;;;;;4936751;29;20200;-49
2022/07/07 12:22:40;;;;;;;12.15;2.53;;;;;;;;;;4936859;29;20524;-52
2022/07/07 12:25:07;;;;;;;11.55;2.17;;;;;;;;;;4927312;29;20555;-54
2022/07/07 12:27:33;;;;;;;23.35;2.40;;;;;;;;;;4935470;29;20233;-51
2022/07/07 12:30:01;;;;;;;16.52;2.30;;;;;;;;;;4935418;29;20626;-51
2022/07/07 12:32:27;;;;;;;11.90;1.90;;;;;;;;;;4935484;29;20183;-48
2022/07/07 12:34:54;;;;;;;11.40;2.35;;;;;;;;;;4935051;29;20194;-49
2022/07/07 12:37:20;;;;;;;13.38;2.70;;;;;;;;;;4935508;29;20211;-47
2022/07/07 12:39:50;;;;;;;14.38;1.95;;;;;;;;;;4936686;29;20183;-53
2022/07/07 12:42:25;;;;;;;13.55;2.47;;;;;;;;;;4936960;29;20180;-48
2022/07/07 12:44:52;;;;;;;11.73;2.17;;;;;;;;;;4934863;29;20308;-49
2022/07/07 12:47:18;;;;;;;11.85;2.15;;;;;;;;;;4936359;29;20226;-52
2022/07/07 12:49:58;;;;;;;11.13;2.40;;;;;;;;;;4935521;29;20719;-51
2022/07/07 12:52:24;;;;;;;14.63;2.28;;;;;;;;;;4935194;29;20272;-53
2022/07/07 12:54:55;;;;;;;11.65;2.20;;;;;;;;;;4936461;29;20187;-50
2022/07/07 12:57:27;;;;;;;8.40;1.83;;;;;;;;;;4936257;29;20500;-51
2022/07/07 12:59:53;;;;;;;6.63;1.90;;;;;;;;;;4935240;29;20278;-53
2022/07/07 13:02:19;;;;;;;10.43;1.75;;;;;;;;;;4934603;29;20570;-57
2022/07/07 13:04:45;;;;;;;12.48;2.10;;;;;;;;;;4931110;29;20191;-54
2022/07/07 13:07:12;;;;;;;11.25;2.00;;;;;;;;;;4935741;29;20202;-54
2022/07/07 13:09:39;;;;;;;14.18;2.13;;;;;;;;;;4936459;29;20175;-54
2022/07/07 13:12:09;;;;;;;12.75;2.03;;;;;;;;;;4931547;29;20183;-49
2022/07/07 13:14:36;;;;;;;15.95;2.50;;;;;;;;;;4934306;29;20711;-50
2022/07/07 13:17:02;;;;;;;12.02;2.30;;;;;;;;;;4934807;29;20187;-54
2022/07/07 13:19:28;;;;;;;10.60;2.60;;;;;;;;;;4935659;29;20187;-58
2022/07/07 13:21:55;;;;;;;10.85;2.28;;;;;;;;;;4933008;29;20194;-52
2022/07/07 13:24:21;;;;;;;14.73;2.58;;;;;;;;;;4934783;29;20670;-52
2022/07/07 13:26:47;;;;;;;15.77;2.53;;;;;;;;;;4935646;29;20206;-50
2022/07/07 13:29:17;;;;;;;20.30;2.85;;;;;;;;;;4935551;29;20579;-54
2022/07/07 13:31:46;;;;;;;17.58;2.88;;;;;;;;;;4903512;29;20179;-57
2022/07/07 13:34:13;;;;;;;17.10;2.88;;;;;;;;;;4942570;28;20194;-56
2022/07/07 13:36:40;;;;;;;10.23;2.50;;;;;;;;;;4932324;29;20187;-55
2022/07/07 13:39:07;;;;;;;14.25;2.50;;;;;;;;;;4933051;29;20226;-54
2022/07/07 13:41:33;;;;;;;20.95;3.30;;;;;;;;;;4932592;29;20195;-54
2022/07/07 13:43:59;;;;;;;18.83;3.33;;;;;;;;;;4934238;29;20211;-53
2022/07/07 13:46:26;;;;;;;18.58;3.05;;;;;;;;;;4933837;29;20715;-50
2022/07/07 13:48:52;;;;;;;15.63;2.58;;;;;;;;;;4934068;29;20253;-54
2022/07/07 13:51:18;;;;;;;19.25;2.58;;;;;;;;;;4934907;29;20191;-51
2022/07/07 13:53:45;;;;;;;20.77;2.53;;;;;;;;;;4932241;29;20194;-50
2022/07/07 13:56:11;;;;;;;19.38;2.80;;;;;;;;;;4933373;29;20540;-54
2022/07/07 13:58:37;;;;;;;22.25;2.75;;;;;;;;;;4935332;29;20245;-50
2022/07/07 14:01:03;;;;;;;12.52;2.30;;;;;;;;;;4933573;29;20187;-50
2022/07/07 14:03:30;;;;;;;16.88;2.45;;;;;;;;;;4935568;29;20183;-52
2022/07/07 14:05:56;;;;;;;18.42;2.60;;;;;;;;;;4935778;29;20187;-55
2022/07/07 14:08:22;;;;;;;13.70;2.55;;;;;;;;;;4934001;29;20203;-52
2022/07/07 14:10:48;;;;;;;14.60;2.70;;;;;;;;;;4934516;29;20191;-50
2022/07/07 14:13:14;;;;;;;23.35;3.30;;;;;;;;;;4922848;29;20242;-53
2022/07/07 14:15:45;;;;;;;17.35;3.15;;;;;;;;;;4933902;29;20220;-54
2022/07/07 14:18:11;;;;;;;16.23;3.08;;;;;;;;;;4934481;29;20250;-54
2022/07/07 14:20:37;;;;;;;14.32;2.80;;;;;;;;;;4934532;29;20282;-51
2022/07/07 14:23:03;;;;;;;16.00;2.95;;;;;;;;;;4935386;29;20239;-51
2022/07/07 14:25:29;;;;;;;18.73;3.20;;;;;;;;;;4933082;29;20235;-51
2022/07/07 14:27:56;;;;;;;21.15;3.42;;;;;;;;;;4934941;29;20274;-51
2022/07/07 14:30:22;;;;;;;14.50;2.70;;;;;;;;;;4937683;29;20672;-50
2022/07/07 14:32:48;;;;;;;13.10;3.05;;;;;;;;;;4921561;29;20195;-53
2022/07/07 14:35:14;;;;;;;17.30;2.80;;;;;;;;;;4938720;29;20172;-54
2022/07/07 14:37:40;;;;;;;14.88;2.70;;;;;;;;;;4921483;29;20303;-54